sensor_id;sensor_type;location;lat;lon;timestamp;P1;durP1;ratioP1;P2;durP2;ratioP2
286;SDS011;127;48.770;9.212;2024-02-26T00:02:16;5.73;;;2.43;;
286;SDS011;127;48.770;9.212;2024-02-26T00:04:45;12.67;;;2.70;;
286;SDS011;127;48.770;9.212;2024-02-26T00:07:14;3.53;;;2.70;;
286;SDS011;127;48.770;9.212;2024-02-26T00:09:43;3.23;;;2.67;;
286;SDS011;127;48.770;9.212;2024-02-26T00:12:11;5.93;;;2.80;;
286;SDS011;127;48.770;9.212;2024-02-26T00:14:40;2.80;;;2.63;;
286;SDS011;127;48.770;9.212;2024-02-26T00:17:13;5.67;;;3.27;;
286;SDS011;127;48.770;9.212;2024-02-26T00:19:42;3.20;;;2.67;;
286;SDS011;127;48.770;9.212;2024-02-26T00:22:11;3.97;;;2.40;;
286;SDS011;127;48.770;9.212;2024-02-26T00:24:40;3.50;;;2.60;;
286;SDS011;127;48.770;9.212;2024-02-26T00:27:09;2.93;;;2.60;;
286;SDS011;127;48.770;9.212;2024-02-26T00:29:38;3.13;;;2.50;;
286;SDS011;127;48.770;9.212;2024-02-26T00:32:07;2.63;;;2.40;;
286;SDS011;127;48.770;9.212;2024-02-26T00:34:38;2.80;;;2.60;;
286;SDS011;127;48.770;9.212;2024-02-26T00:37:07;4.37;;;2.70;;
286;SDS011;127;48.770;9.212;2024-02-26T00:39:36;3.20;;;2.50;;
286;SDS011;127;48.770;9.212;2024-02-26T00:42:05;4.53;;;2.73;;
286;SDS011;127;48.770;9.212;2024-02-26T00:44:34;3.60;;;2.40;;
286;SDS011;127;48.770;9.212;2024-02-26T00:47:03;3.13;;;2.50;;
286;SDS011;127;48.770;9.212;2024-02-26T00:49:32;2.30;;;2.10;;
286;SDS011;127;48.770;9.212;2024-02-26T00:52:03;2.33;;;2.13;;
286;SDS011;127;48.770;9.212;2024-02-26T00:54:32;2.90;;;2.70;;
286;SDS011;127;48.770;9.212;2024-02-26T00:57:01;3.37;;;2.73;;
286;SDS011;127;48.770;9.212;2024-02-26T00:59:30;4.10;;;2.70;;
286;SDS011;127;48.770;9.212;2024-02-26T01:01:59;4.13;;;2.80;;
286;SDS011;127;48.770;9.212;2024-02-26T01:04:30;4.70;;;2.50;;
286;SDS011;127;48.770;9.212;2024-02-26T01:06:59;3.50;;;2.73;;
286;SDS011;127;48.770;9.212;2024-02-26T01:09:30;2.60;;;2.40;;
286;SDS011;127;48.770;9.212;2024-02-26T01:11:59;8.83;;;2.90;;
286;SDS011;127;48.770;9.212;2024-02-26T01:14:28;6.20;;;2.60;;
286;SDS011;127;48.770;9.212;2024-02-26T01:16:57;3.77;;;2.40;;
286;SDS011;127;48.770;9.212;2024-02-26T01:19:26;3.70;;;2.90;;
286;SDS011;127;48.770;9.212;2024-02-26T01:21:55;3.40;;;2.90;;
286;SDS011;127;48.770;9.212;2024-02-26T01:24:24;4.57;;;2.30;;
286;SDS011;127;48.770;9.212;2024-02-26T01:26:55;2.83;;;2.63;;
286;SDS011;127;48.770;9.212;2024-02-26T01:29:24;3.47;;;2.47;;
286;SDS011;127;48.770;9.212;2024-02-26T01:31:53;3.77;;;2.43;;
286;SDS011;127;48.770;9.212;2024-02-26T01:34:22;2.80;;;2.27;;
286;SDS011;127;48.770;9.212;2024-02-26T01:36:51;3.70;;;2.90;;
286;SDS011;127;48.770;9.212;2024-02-26T01:39:21;3.30;;;2.67;;
286;SDS011;127;48.770;9.212;2024-02-26T01:41:50;3.83;;;2.70;;
286;SDS011;127;48.770;9.212;2024-02-26T01:44:21;2.87;;;2.40;;
286;SDS011;127;48.770;9.212;2024-02-26T01:46:50;3.13;;;2.70;;
286;SDS011;127;48.770;9.212;2024-02-26T01:49:19;3.00;;;2.80;;
286;SDS011;127;48.770;9.212;2024-02-26T01:51:48;9.43;;;3.30;;
286;SDS011;127;48.770;9.212;2024-02-26T01:54:17;3.93;;;2.80;;
286;SDS011;127;48.770;9.212;2024-02-26T01:56:46;4.57;;;3.40;;
286;SDS011;127;48.770;9.212;2024-02-26T01:59:15;2.97;;;2.73;;
286;SDS011;127;48.770;9.212;2024-02-26T02:01:48;4.70;;;3.20;;
286;SDS011;127;48.770;9.212;2024-02-26T02:04:20;7.30;;;2.90;;
286;SDS011;127;48.770;9.212;2024-02-26T02:06:49;3.00;;;2.83;;
286;SDS011;127;48.770;9.212;2024-02-26T02:09:19;4.93;;;2.60;;
286;SDS011;127;48.770;9.212;2024-02-26T02:11:48;3.90;;;3.00;;
286;SDS011;127;48.770;9.212;2024-02-26T02:14:17;3.23;;;2.80;;
286;SDS011;127;48.770;9.212;2024-02-26T02:16:48;3.70;;;3.07;;
286;SDS011;127;48.770;9.212;2024-02-26T02:19:17;2.40;;;2.20;;
286;SDS011;127;48.770;9.212;2024-02-26T02:21:48;3.43;;;2.30;;
286;SDS011;127;48.770;9.212;2024-02-26T02:24:17;4.40;;;2.90;;
286;SDS011;127;48.770;9.212;2024-02-26T02:26:46;6.00;;;2.60;;
286;SDS011;127;48.770;9.212;2024-02-26T02:29:15;3.37;;;2.60;;
286;SDS011;127;48.770;9.212;2024-02-26T02:31:44;2.30;;;2.10;;
286;SDS011;127;48.770;9.212;2024-02-26T02:34:13;4.50;;;2.50;;
286;SDS011;127;48.770;9.212;2024-02-26T02:36:51;2.63;;;2.17;;
286;SDS011;127;48.770;9.212;2024-02-26T02:39:20;2.50;;;2.33;;
286;SDS011;127;48.770;9.212;2024-02-26T02:41:50;2.73;;;2.20;;
286;SDS011;127;48.770;9.212;2024-02-26T02:44:18;1.87;;;1.63;;
286;SDS011;127;48.770;9.212;2024-02-26T02:46:47;3.07;;;2.13;;
286;SDS011;127;48.770;9.212;2024-02-26T02:49:18;1.83;;;1.73;;
286;SDS011;127;48.770;9.212;2024-02-26T02:51:51;3.67;;;2.33;;
286;SDS011;127;48.770;9.212;2024-02-26T02:54:22;6.10;;;2.70;;
286;SDS011;127;48.770;9.212;2024-02-26T02:56:51;2.83;;;2.43;;
286;SDS011;127;48.770;9.212;2024-02-26T02:59:20;2.20;;;2.00;;
286;SDS011;127;48.770;9.212;2024-02-26T03:01:49;2.17;;;1.90;;
286;SDS011;127;48.770;9.212;2024-02-26T03:04:18;1.83;;;1.67;;
286;SDS011;127;48.770;9.212;2024-02-26T03:06:47;2.40;;;2.00;;
286;SDS011;127;48.770;9.212;2024-02-26T03:09:18;2.07;;;1.70;;
286;SDS011;127;48.770;9.212;2024-02-26T03:11:48;1.87;;;1.77;;
286;SDS011;127;48.770;9.212;2024-02-26T03:14:17;1.63;;;1.53;;
286;SDS011;127;48.770;9.212;2024-02-26T03:16:46;2.70;;;1.70;;
286;SDS011;127;48.770;9.212;2024-02-26T03:19:15;1.70;;;1.57;;
286;SDS011;127;48.770;9.212;2024-02-26T03:21:44;2.17;;;1.97;;
286;SDS011;127;48.770;9.212;2024-02-26T03:24:13;2.50;;;2.13;;
286;SDS011;127;48.770;9.212;2024-02-26T03:26:44;1.80;;;1.70;;
286;SDS011;127;48.770;9.212;2024-02-26T03:29:13;2.13;;;2.00;;
286;SDS011;127;48.770;9.212;2024-02-26T03:31:42;3.23;;;1.90;;
286;SDS011;127;48.770;9.212;2024-02-26T03:34:11;2.30;;;1.90;;
286;SDS011;127;48.770;9.212;2024-02-26T03:36:39;1.57;;;1.50;;
286;SDS011;127;48.770;9.212;2024-02-26T03:39:08;2.40;;;1.70;;
286;SDS011;127;48.770;9.212;2024-02-26T03:41:37;1.80;;;1.70;;
286;SDS011;127;48.770;9.212;2024-02-26T03:44:09;1.67;;;1.60;;
286;SDS011;127;48.770;9.212;2024-02-26T03:46:38;2.43;;;2.07;;
286;SDS011;127;48.770;9.212;2024-02-26T03:49:07;1.70;;;1.60;;
286;SDS011;127;48.770;9.212;2024-02-26T03:51:37;1.83;;;1.73;;
286;SDS011;127;48.770;9.212;2024-02-26T03:54:06;2.20;;;2.00;;
286;SDS011;127;48.770;9.212;2024-02-26T03:56:35;2.53;;;2.23;;
286;SDS011;127;48.770;9.212;2024-02-26T03:59:04;2.07;;;1.93;;
286;SDS011;127;48.770;9.212;2024-02-26T04:01:36;3.63;;;2.50;;
286;SDS011;127;48.770;9.212;2024-02-26T04:04:04;5.13;;;2.00;;
286;SDS011;127;48.770;9.212;2024-02-26T04:06:33;4.77;;;2.53;;
286;SDS011;127;48.770;9.212;2024-02-26T04:09:02;2.60;;;2.03;;
286;SDS011;127;48.770;9.212;2024-02-26T04:11:32;4.33;;;2.70;;
286;SDS011;127;48.770;9.212;2024-02-26T04:14:01;7.20;;;3.17;;
286;SDS011;127;48.770;9.212;2024-02-26T04:16:31;6.53;;;3.80;;
286;SDS011;127;48.770;9.212;2024-02-26T04:19:02;6.20;;;3.50;;
286;SDS011;127;48.770;9.212;2024-02-26T04:21:31;8.70;;;4.07;;
286;SDS011;127;48.770;9.212;2024-02-26T04:24:00;7.00;;;3.57;;
286;SDS011;127;48.770;9.212;2024-02-26T04:26:29;6.53;;;3.80;;
286;SDS011;127;48.770;9.212;2024-02-26T04:28:58;16.30;;;4.33;;
286;SDS011;127;48.770;9.212;2024-02-26T04:31:27;6.63;;;3.87;;
286;SDS011;127;48.770;9.212;2024-02-26T04:33:58;6.57;;;3.10;;
286;SDS011;127;48.770;9.212;2024-02-26T04:36:29;6.53;;;3.47;;
286;SDS011;127;48.770;9.212;2024-02-26T04:38:58;6.47;;;3.33;;
286;SDS011;127;48.770;9.212;2024-02-26T04:41:27;9.53;;;3.40;;
286;SDS011;127;48.770;9.212;2024-02-26T04:43:56;3.90;;;2.83;;
286;SDS011;127;48.770;9.212;2024-02-26T04:46:25;4.70;;;2.87;;
286;SDS011;127;48.770;9.212;2024-02-26T04:48:53;4.70;;;2.93;;
286;SDS011;127;48.770;9.212;2024-02-26T04:51:23;15.00;;;3.73;;
286;SDS011;127;48.770;9.212;2024-02-26T04:53:54;3.70;;;2.60;;
286;SDS011;127;48.770;9.212;2024-02-26T04:56:24;3.10;;;2.60;;
286;SDS011;127;48.770;9.212;2024-02-26T04:58:53;4.50;;;2.50;;
286;SDS011;127;48.770;9.212;2024-02-26T05:01:22;4.13;;;2.50;;
286;SDS011;127;48.770;9.212;2024-02-26T05:03:51;3.00;;;2.30;;
286;SDS011;127;48.770;9.212;2024-02-26T05:06:19;2.87;;;2.67;;
286;SDS011;127;48.770;9.212;2024-02-26T05:08:48;4.10;;;2.77;;
286;SDS011;127;48.770;9.212;2024-02-26T05:11:20;3.73;;;2.60;;
286;SDS011;127;48.770;9.212;2024-02-26T05:13:49;2.40;;;2.20;;
286;SDS011;127;48.770;9.212;2024-02-26T05:16:18;2.80;;;2.60;;
286;SDS011;127;48.770;9.212;2024-02-26T05:18:49;4.97;;;3.40;;
286;SDS011;127;48.770;9.212;2024-02-26T05:21:18;4.97;;;3.17;;
286;SDS011;127;48.770;9.212;2024-02-26T05:23:47;4.03;;;3.10;;
286;SDS011;127;48.770;9.212;2024-02-26T05:26:22;7.30;;;3.40;;
286;SDS011;127;48.770;9.212;2024-02-26T05:28:51;6.10;;;3.67;;
286;SDS011;127;48.770;9.212;2024-02-26T05:31:24;7.73;;;3.80;;
286;SDS011;127;48.770;9.212;2024-02-26T05:33:53;3.40;;;3.00;;
286;SDS011;127;48.770;9.212;2024-02-26T05:36:23;3.50;;;3.10;;
286;SDS011;127;48.770;9.212;2024-02-26T05:38:53;4.20;;;3.40;;
286;SDS011;127;48.770;9.212;2024-02-26T05:41:25;5.33;;;3.60;;
286;SDS011;127;48.770;9.212;2024-02-26T05:43:54;3.47;;;3.30;;
286;SDS011;127;48.770;9.212;2024-02-26T05:46:23;4.77;;;3.50;;
286;SDS011;127;48.770;9.212;2024-02-26T05:48:52;3.47;;;3.33;;
286;SDS011;127;48.770;9.212;2024-02-26T05:51:21;5.10;;;3.87;;
286;SDS011;127;48.770;9.212;2024-02-26T05:53:50;5.53;;;3.30;;
286;SDS011;127;48.770;9.212;2024-02-26T05:56:21;4.50;;;3.20;;
286;SDS011;127;48.770;9.212;2024-02-26T05:58:52;3.97;;;3.50;;
286;SDS011;127;48.770;9.212;2024-02-26T06:01:21;6.00;;;3.30;;
286;SDS011;127;48.770;9.212;2024-02-26T06:03:51;4.07;;;3.77;;
286;SDS011;127;48.770;9.212;2024-02-26T06:06:20;4.10;;;3.10;;
286;SDS011;127;48.770;9.212;2024-02-26T06:08:49;3.03;;;2.83;;
286;SDS011;127;48.770;9.212;2024-02-26T06:11:18;13.53;;;4.00;;
286;SDS011;127;48.770;9.212;2024-02-26T06:13:48;9.03;;;3.27;;
286;SDS011;127;48.770;9.212;2024-02-26T06:16:19;3.40;;;2.90;;
286;SDS011;127;48.770;9.212;2024-02-26T06:18:48;3.67;;;3.17;;
286;SDS011;127;48.770;9.212;2024-02-26T06:21:17;6.37;;;2.97;;
286;SDS011;127;48.770;9.212;2024-02-26T06:23:46;4.60;;;3.30;;
286;SDS011;127;48.770;9.212;2024-02-26T06:26:15;3.57;;;3.30;;
286;SDS011;127;48.770;9.212;2024-02-26T06:28:44;6.90;;;3.50;;
286;SDS011;127;48.770;9.212;2024-02-26T06:31:13;6.07;;;3.67;;
286;SDS011;127;48.770;9.212;2024-02-26T06:33:45;5.87;;;3.60;;
286;SDS011;127;48.770;9.212;2024-02-26T06:36:14;3.87;;;3.67;;
286;SDS011;127;48.770;9.212;2024-02-26T06:38:42;2.93;;;2.70;;
286;SDS011;127;48.770;9.212;2024-02-26T06:41:11;5.00;;;3.00;;
286;SDS011;127;48.770;9.212;2024-02-26T06:43:40;3.97;;;2.73;;
286;SDS011;127;48.770;9.212;2024-02-26T06:46:09;3.83;;;3.50;;
286;SDS011;127;48.770;9.212;2024-02-26T06:48:38;2.80;;;2.63;;
286;SDS011;127;48.770;9.212;2024-02-26T06:51:09;4.40;;;2.57;;
286;SDS011;127;48.770;9.212;2024-02-26T06:53:39;4.67;;;3.20;;
286;SDS011;127;48.770;9.212;2024-02-26T06:56:07;3.40;;;2.40;;
286;SDS011;127;48.770;9.212;2024-02-26T06:58:36;3.90;;;2.80;;
286;SDS011;127;48.770;9.212;2024-02-26T07:01:05;3.27;;;2.70;;
286;SDS011;127;48.770;9.212;2024-02-26T07:03:35;4.10;;;3.17;;
286;SDS011;127;48.770;9.212;2024-02-26T07:06:04;2.80;;;2.40;;
286;SDS011;127;48.770;9.212;2024-02-26T07:08:36;3.00;;;2.50;;
286;SDS011;127;48.770;9.212;2024-02-26T07:11:06;5.70;;;2.67;;
286;SDS011;127;48.770;9.212;2024-02-26T07:13:36;2.60;;;2.40;;
286;SDS011;127;48.770;9.212;2024-02-26T07:16:05;3.63;;;2.40;;
286;SDS011;127;48.770;9.212;2024-02-26T07:18:34;3.53;;;2.80;;
286;SDS011;127;48.770;9.212;2024-02-26T07:21:03;3.73;;;2.47;;
286;SDS011;127;48.770;9.212;2024-02-26T07:23:32;4.50;;;2.50;;
286;SDS011;127;48.770;9.212;2024-02-26T07:26:04;5.90;;;2.50;;
286;SDS011;127;48.770;9.212;2024-02-26T07:28:33;3.27;;;2.60;;
286;SDS011;127;48.770;9.212;2024-02-26T07:31:02;2.30;;;2.13;;
286;SDS011;127;48.770;9.212;2024-02-26T07:33:31;3.57;;;2.20;;
286;SDS011;127;48.770;9.212;2024-02-26T07:36:00;4.70;;;2.40;;
286;SDS011;127;48.770;9.212;2024-02-26T07:38:28;2.77;;;2.57;;
286;SDS011;127;48.770;9.212;2024-02-26T07:40:58;2.90;;;2.50;;
286;SDS011;127;48.770;9.212;2024-02-26T07:43:29;4.73;;;2.43;;
286;SDS011;127;48.770;9.212;2024-02-26T07:45:58;5.17;;;2.67;;
286;SDS011;127;48.770;9.212;2024-02-26T07:48:27;3.87;;;2.50;;
286;SDS011;127;48.770;9.212;2024-02-26T07:50:56;2.80;;;2.60;;
286;SDS011;127;48.770;9.212;2024-02-26T07:53:25;3.17;;;2.70;;
286;SDS011;127;48.770;9.212;2024-02-26T07:55:54;4.83;;;2.97;;
286;SDS011;127;48.770;9.212;2024-02-26T07:58:23;6.57;;;3.23;;
286;SDS011;127;48.770;9.212;2024-02-26T08:00:55;3.37;;;2.70;;
286;SDS011;127;48.770;9.212;2024-02-26T08:03:23;4.20;;;3.30;;
286;SDS011;127;48.770;9.212;2024-02-26T08:05:52;4.53;;;3.40;;
286;SDS011;127;48.770;9.212;2024-02-26T08:08:22;4.27;;;2.63;;
286;SDS011;127;48.770;9.212;2024-02-26T08:10:50;10.10;;;3.20;;
286;SDS011;127;48.770;9.212;2024-02-26T08:13:19;4.53;;;3.13;;
286;SDS011;127;48.770;9.212;2024-02-26T08:15:49;10.50;;;3.40;;
286;SDS011;127;48.770;9.212;2024-02-26T08:18:20;4.60;;;2.93;;
286;SDS011;127;48.770;9.212;2024-02-26T08:20:49;5.57;;;2.97;;
286;SDS011;127;48.770;9.212;2024-02-26T08:23:18;3.60;;;2.90;;
286;SDS011;127;48.770;9.212;2024-02-26T08:25:47;7.60;;;3.30;;
286;SDS011;127;48.770;9.212;2024-02-26T08:28:16;4.50;;;3.23;;
286;SDS011;127;48.770;9.212;2024-02-26T08:30:45;4.93;;;3.43;;
286;SDS011;127;48.770;9.212;2024-02-26T08:33:14;4.47;;;3.10;;
286;SDS011;127;48.770;9.212;2024-02-26T08:35:45;4.73;;;3.60;;
286;SDS011;127;48.770;9.212;2024-02-26T08:38:14;12.57;;;3.50;;
286;SDS011;127;48.770;9.212;2024-02-26T08:40:43;7.33;;;3.73;;
286;SDS011;127;48.770;9.212;2024-02-26T08:43:12;11.13;;;3.30;;
286;SDS011;127;48.770;9.212;2024-02-26T08:45:41;4.70;;;3.73;;
286;SDS011;127;48.770;9.212;2024-02-26T08:48:09;4.80;;;3.40;;
286;SDS011;127;48.770;9.212;2024-02-26T08:50:38;3.67;;;3.30;;
286;SDS011;127;48.770;9.212;2024-02-26T08:53:10;4.63;;;3.40;;
286;SDS011;127;48.770;9.212;2024-02-26T08:55:39;5.13;;;3.20;;
286;SDS011;127;48.770;9.212;2024-02-26T08:58:07;5.20;;;3.30;;
286;SDS011;127;48.770;9.212;2024-02-26T09:00:36;5.83;;;3.90;;
286;SDS011;127;48.770;9.212;2024-02-26T09:03:05;4.00;;;2.80;;
286;SDS011;127;48.770;9.212;2024-02-26T09:05:34;4.70;;;3.40;;
286;SDS011;127;48.770;9.212;2024-02-26T09:08:03;5.27;;;3.40;;
286;SDS011;127;48.770;9.212;2024-02-26T09:10:35;4.40;;;3.10;;
286;SDS011;127;48.770;9.212;2024-02-26T09:13:04;11.47;;;4.80;;
286;SDS011;127;48.770;9.212;2024-02-26T09:15:33;9.67;;;4.50;;
286;SDS011;127;48.770;9.212;2024-02-26T09:18:02;9.17;;;4.47;;
286;SDS011;127;48.770;9.212;2024-02-26T09:20:30;8.27;;;5.00;;
286;SDS011;127;48.770;9.212;2024-02-26T09:22:59;7.63;;;4.63;;
286;SDS011;127;48.770;9.212;2024-02-26T09:25:28;6.93;;;3.60;;
286;SDS011;127;48.770;9.212;2024-02-26T09:28:01;8.10;;;4.10;;
286;SDS011;127;48.770;9.212;2024-02-26T09:30:30;9.33;;;3.90;;
286;SDS011;127;48.770;9.212;2024-02-26T09:32:58;11.50;;;3.27;;
286;SDS011;127;48.770;9.212;2024-02-26T09:35:27;7.43;;;3.30;;
286;SDS011;127;48.770;9.212;2024-02-26T09:37:56;8.30;;;4.00;;
286;SDS011;127;48.770;9.212;2024-02-26T09:40:25;5.20;;;3.67;;
286;SDS011;127;48.770;9.212;2024-02-26T09:42:56;9.90;;;3.50;;
286;SDS011;127;48.770;9.212;2024-02-26T09:45:30;12.70;;;3.87;;
286;SDS011;127;48.770;9.212;2024-02-26T09:48:01;16.93;;;3.90;;
286;SDS011;127;48.770;9.212;2024-02-26T09:50:31;5.17;;;3.80;;
286;SDS011;127;48.770;9.212;2024-02-26T09:53:00;9.73;;;4.33;;
286;SDS011;127;48.770;9.212;2024-02-26T09:55:32;6.97;;;3.90;;
286;SDS011;127;48.770;9.212;2024-02-26T09:58:01;8.60;;;4.47;;
286;SDS011;127;48.770;9.212;2024-02-26T10:00:33;5.90;;;3.80;;
286;SDS011;127;48.770;9.212;2024-02-26T10:03:06;8.30;;;4.20;;
286;SDS011;127;48.770;9.212;2024-02-26T10:05:38;4.53;;;3.10;;
286;SDS011;127;48.770;9.212;2024-02-26T10:08:07;6.57;;;3.10;;
286;SDS011;127;48.770;9.212;2024-02-26T10:10:36;4.80;;;3.30;;
286;SDS011;127;48.770;9.212;2024-02-26T10:13:06;5.23;;;3.33;;
286;SDS011;127;48.770;9.212;2024-02-26T10:15:39;5.83;;;3.53;;
286;SDS011;127;48.770;9.212;2024-02-26T10:18:08;6.07;;;3.87;;
286;SDS011;127;48.770;9.212;2024-02-26T10:20:37;11.40;;;3.93;;
286;SDS011;127;48.770;9.212;2024-02-26T10:23:06;5.60;;;2.83;;
286;SDS011;127;48.770;9.212;2024-02-26T10:25:35;5.70;;;3.57;;
286;SDS011;127;48.770;9.212;2024-02-26T10:28:04;3.73;;;2.70;;
286;SDS011;127;48.770;9.212;2024-02-26T10:30:36;3.60;;;2.80;;
286;SDS011;127;48.770;9.212;2024-02-26T10:33:09;4.80;;;3.30;;
286;SDS011;127;48.770;9.212;2024-02-26T10:35:39;5.80;;;3.17;;
286;SDS011;127;48.770;9.212;2024-02-26T10:38:08;4.70;;;2.50;;
286;SDS011;127;48.770;9.212;2024-02-26T10:40:37;3.10;;;2.43;;
286;SDS011;127;48.770;9.212;2024-02-26T10:43:06;3.27;;;2.40;;
286;SDS011;127;48.770;9.212;2024-02-26T10:45:35;3.10;;;2.30;;
286;SDS011;127;48.770;9.212;2024-02-26T10:48:12;4.53;;;2.80;;
286;SDS011;127;48.770;9.212;2024-02-26T10:50:42;5.63;;;2.40;;
286;SDS011;127;48.770;9.212;2024-02-26T10:53:13;3.77;;;2.83;;
286;SDS011;127;48.770;9.212;2024-02-26T10:55:43;3.40;;;2.37;;
286;SDS011;127;48.770;9.212;2024-02-26T10:58:14;5.00;;;2.60;;
286;SDS011;127;48.770;9.212;2024-02-26T11:00:43;2.07;;;1.93;;
286;SDS011;127;48.770;9.212;2024-02-26T11:03:14;2.33;;;2.20;;
286;SDS011;127;48.770;9.212;2024-02-26T11:05:45;2.80;;;2.23;;
286;SDS011;127;48.770;9.212;2024-02-26T11:08:15;3.67;;;1.57;;
286;SDS011;127;48.770;9.212;2024-02-26T11:10:44;2.27;;;1.87;;
286;SDS011;127;48.770;9.212;2024-02-26T11:13:15;2.43;;;1.70;;
286;SDS011;127;48.770;9.212;2024-02-26T11:15:45;1.77;;;1.73;;
286;SDS011;127;48.770;9.212;2024-02-26T11:18:17;2.87;;;1.90;;
286;SDS011;127;48.770;9.212;2024-02-26T11:20:47;3.20;;;1.60;;
286;SDS011;127;48.770;9.212;2024-02-26T11:23:16;8.63;;;2.10;;
286;SDS011;127;48.770;9.212;2024-02-26T11:25:45;5.67;;;1.87;;
286;SDS011;127;48.770;9.212;2024-02-26T11:28:14;3.30;;;2.10;;
286;SDS011;127;48.770;9.212;2024-02-26T11:30:45;3.00;;;2.30;;
286;SDS011;127;48.770;9.212;2024-02-26T11:33:17;5.03;;;1.90;;
286;SDS011;127;48.770;9.212;2024-02-26T11:35:47;3.90;;;1.70;;
286;SDS011;127;48.770;9.212;2024-02-26T11:38:19;6.67;;;2.30;;
286;SDS011;127;48.770;9.212;2024-02-26T11:40:48;3.40;;;2.07;;
286;SDS011;127;48.770;9.212;2024-02-26T11:43:18;4.03;;;2.30;;
286;SDS011;127;48.770;9.212;2024-02-26T11:45:51;2.60;;;1.87;;
286;SDS011;127;48.770;9.212;2024-02-26T11:48:28;2.77;;;2.43;;
286;SDS011;127;48.770;9.212;2024-02-26T11:50:57;3.97;;;2.40;;
286;SDS011;127;48.770;9.212;2024-02-26T11:53:26;3.60;;;2.73;;
286;SDS011;127;48.770;9.212;2024-02-26T11:58:40;15.40;;;4.70;;
286;SDS011;127;48.770;9.212;2024-02-26T12:03:56;4.80;;;3.13;;
286;SDS011;127;48.770;9.212;2024-02-26T12:06:25;7.70;;;3.97;;
286;SDS011;127;48.770;9.212;2024-02-26T12:08:56;8.83;;;3.40;;
286;SDS011;127;48.770;9.212;2024-02-26T12:11:27;6.47;;;2.93;;
286;SDS011;127;48.770;9.212;2024-02-26T12:13:56;4.80;;;3.10;;
286;SDS011;127;48.770;9.212;2024-02-26T12:16:34;7.20;;;3.27;;
286;SDS011;127;48.770;9.212;2024-02-26T12:19:07;6.50;;;3.07;;
286;SDS011;127;48.770;9.212;2024-02-26T12:21:37;4.90;;;2.90;;
286;SDS011;127;48.770;9.212;2024-02-26T12:24:12;5.10;;;2.10;;
286;SDS011;127;48.770;9.212;2024-02-26T12:26:41;3.37;;;2.20;;
286;SDS011;127;48.770;9.212;2024-02-26T12:29:10;3.00;;;1.97;;
286;SDS011;127;48.770;9.212;2024-02-26T12:31:39;6.63;;;2.87;;
286;SDS011;127;48.770;9.212;2024-02-26T12:34:11;5.80;;;3.63;;
286;SDS011;127;48.770;9.212;2024-02-26T12:36:41;11.40;;;4.37;;
286;SDS011;127;48.770;9.212;2024-02-26T12:39:10;4.80;;;3.30;;
286;SDS011;127;48.770;9.212;2024-02-26T12:41:39;6.67;;;3.67;;
286;SDS011;127;48.770;9.212;2024-02-26T12:44:14;11.30;;;4.13;;
286;SDS011;127;48.770;9.212;2024-02-26T12:46:43;12.77;;;3.63;;
286;SDS011;127;48.770;9.212;2024-02-26T12:49:16;6.27;;;3.37;;
286;SDS011;127;48.770;9.212;2024-02-26T12:51:45;7.40;;;3.47;;
286;SDS011;127;48.770;9.212;2024-02-26T12:54:14;9.07;;;3.50;;
286;SDS011;127;48.770;9.212;2024-02-26T12:56:44;13.13;;;3.20;;
286;SDS011;127;48.770;9.212;2024-02-26T12:59:13;6.60;;;3.43;;
286;SDS011;127;48.770;9.212;2024-02-26T13:01:42;7.03;;;3.43;;
286;SDS011;127;48.770;9.212;2024-02-26T13:04:11;5.30;;;3.50;;
286;SDS011;127;48.770;9.212;2024-02-26T13:06:42;6.97;;;3.67;;
286;SDS011;127;48.770;9.212;2024-02-26T13:09:12;9.03;;;3.23;;
286;SDS011;127;48.770;9.212;2024-02-26T13:11:42;7.67;;;3.80;;
286;SDS011;127;48.770;9.212;2024-02-26T13:14:18;8.00;;;3.03;;
286;SDS011;127;48.770;9.212;2024-02-26T13:16:54;9.30;;;3.03;;
286;SDS011;127;48.770;9.212;2024-02-26T13:19:23;3.50;;;2.60;;
286;SDS011;127;48.770;9.212;2024-02-26T13:21:55;9.90;;;3.00;;
286;SDS011;127;48.770;9.212;2024-02-26T13:24:24;7.10;;;3.13;;
286;SDS011;127;48.770;9.212;2024-02-26T13:26:56;9.57;;;3.20;;
286;SDS011;127;48.770;9.212;2024-02-26T13:29:25;4.00;;;2.60;;
286;SDS011;127;48.770;9.212;2024-02-26T13:31:55;4.20;;;2.40;;
286;SDS011;127;48.770;9.212;2024-02-26T13:34:24;2.97;;;2.30;;
286;SDS011;127;48.770;9.212;2024-02-26T13:36:55;6.87;;;2.10;;
286;SDS011;127;48.770;9.212;2024-02-26T13:39:25;8.10;;;2.30;;
286;SDS011;127;48.770;9.212;2024-02-26T13:41:55;1.80;;;1.53;;
286;SDS011;127;48.770;9.212;2024-02-26T13:44:24;6.53;;;2.30;;
286;SDS011;127;48.770;9.212;2024-02-26T13:46:53;4.43;;;2.00;;
286;SDS011;127;48.770;9.212;2024-02-26T13:49:22;6.90;;;2.20;;
286;SDS011;127;48.770;9.212;2024-02-26T13:51:51;4.87;;;1.90;;
286;SDS011;127;48.770;9.212;2024-02-26T13:54:22;8.33;;;1.80;;
286;SDS011;127;48.770;9.212;2024-02-26T13:56:51;1.20;;;1.10;;
286;SDS011;127;48.770;9.212;2024-02-26T13:59:20;1.23;;;1.20;;
286;SDS011;127;48.770;9.212;2024-02-26T14:01:49;2.10;;;1.50;;
286;SDS011;127;48.770;9.212;2024-02-26T14:04:20;3.20;;;1.30;;
286;SDS011;127;48.770;9.212;2024-02-26T14:06:48;4.27;;;1.60;;
286;SDS011;127;48.770;9.212;2024-02-26T14:09:17;1.73;;;1.33;;
286;SDS011;127;48.770;9.212;2024-02-26T14:11:49;2.27;;;1.40;;
286;SDS011;127;48.770;9.212;2024-02-26T14:14:18;1.20;;;1.07;;
286;SDS011;127;48.770;9.212;2024-02-26T14:16:47;1.10;;;1.07;;
286;SDS011;127;48.770;9.212;2024-02-26T14:19:16;3.60;;;1.07;;
286;SDS011;127;48.770;9.212;2024-02-26T14:21:44;2.30;;;1.27;;
286;SDS011;127;48.770;9.212;2024-02-26T14:24:13;1.20;;;1.10;;
286;SDS011;127;48.770;9.212;2024-02-26T14:26:42;6.20;;;1.20;;
286;SDS011;127;48.770;9.212;2024-02-26T14:29:14;4.03;;;1.20;;
286;SDS011;127;48.770;9.212;2024-02-26T14:31:43;1.70;;;0.93;;
286;SDS011;127;48.770;9.212;2024-02-26T14:34:11;1.67;;;1.20;;
286;SDS011;127;48.770;9.212;2024-02-26T14:36:42;1.87;;;1.30;;
286;SDS011;127;48.770;9.212;2024-02-26T14:39:11;1.90;;;1.40;;
286;SDS011;127;48.770;9.212;2024-02-26T14:41:40;1.80;;;1.17;;
286;SDS011;127;48.770;9.212;2024-02-26T14:44:09;1.53;;;1.17;;
286;SDS011;127;48.770;9.212;2024-02-26T14:46:41;2.73;;;1.40;;
286;SDS011;127;48.770;9.212;2024-02-26T14:49:10;1.77;;;1.43;;
286;SDS011;127;48.770;9.212;2024-02-26T14:51:39;2.03;;;1.30;;
286;SDS011;127;48.770;9.212;2024-02-26T14:54:09;1.70;;;1.47;;
286;SDS011;127;48.770;9.212;2024-02-26T14:56:39;2.23;;;1.63;;
286;SDS011;127;48.770;9.212;2024-02-26T14:59:08;2.07;;;1.40;;
286;SDS011;127;48.770;9.212;2024-02-26T15:01:37;2.77;;;1.57;;
286;SDS011;127;48.770;9.212;2024-02-26T15:04:08;3.87;;;1.87;;
286;SDS011;127;48.770;9.212;2024-02-26T15:06:37;2.50;;;1.80;;
286;SDS011;127;48.770;9.212;2024-02-26T15:09:06;2.30;;;2.00;;
286;SDS011;127;48.770;9.212;2024-02-26T15:11:37;2.43;;;1.80;;
286;SDS011;127;48.770;9.212;2024-02-26T15:14:08;2.33;;;1.77;;
286;SDS011;127;48.770;9.212;2024-02-26T15:16:38;4.23;;;1.80;;
286;SDS011;127;48.770;9.212;2024-02-26T15:19:09;2.50;;;1.90;;
286;SDS011;127;48.770;9.212;2024-02-26T15:21:42;2.80;;;2.00;;
286;SDS011;127;48.770;9.212;2024-02-26T15:24:11;4.97;;;2.10;;
286;SDS011;127;48.770;9.212;2024-02-26T15:26:41;1.57;;;1.50;;
286;SDS011;127;48.770;9.212;2024-02-26T15:29:10;2.23;;;1.83;;
286;SDS011;127;48.770;9.212;2024-02-26T15:31:39;2.77;;;1.97;;
286;SDS011;127;48.770;9.212;2024-02-26T15:34:11;2.10;;;1.80;;
286;SDS011;127;48.770;9.212;2024-02-26T15:36:40;2.53;;;1.87;;
286;SDS011;127;48.770;9.212;2024-02-26T15:39:09;2.57;;;2.27;;
286;SDS011;127;48.770;9.212;2024-02-26T15:41:38;4.40;;;2.33;;
286;SDS011;127;48.770;9.212;2024-02-26T15:44:07;3.47;;;1.73;;
286;SDS011;127;48.770;9.212;2024-02-26T15:46:38;3.30;;;1.63;;
286;SDS011;127;48.770;9.212;2024-02-26T15:49:08;3.23;;;1.90;;
286;SDS011;127;48.770;9.212;2024-02-26T15:51:40;5.53;;;2.40;;
286;SDS011;127;48.770;9.212;2024-02-26T15:54:09;7.30;;;2.40;;
286;SDS011;127;48.770;9.212;2024-02-26T15:56:41;3.90;;;1.83;;
286;SDS011;127;48.770;9.212;2024-02-26T15:59:11;6.33;;;2.13;;
286;SDS011;127;48.770;9.212;2024-02-26T16:01:40;4.90;;;2.17;;
286;SDS011;127;48.770;9.212;2024-02-26T16:04:09;5.40;;;2.10;;
286;SDS011;127;48.770;9.212;2024-02-26T16:06:42;3.67;;;2.10;;